Time;durP1;ratioP1;P1;durP2;ratioP2;P2;SDS_P1;SDS_P2;PMS_P1;PMS_P2;Temp;Humidity;BMP_temperature;BMP_pressure;BME280_temperature;BME280_humidity;BME280_pressure;Samples;Min_cycle;Max_cycle;Signal;HPM_P1;HPM_P2
2021/10/27 00:00:37;;;;;;;12.63;5.25;;;15.50;95.10;;;;;;5153377;27;20058;-75
2021/10/27 00:03:03;;;;;;;16.65;7.07;;;15.60;95.10;;;;;;5146710;27;20062;-75
2021/10/27 00:05:29;;;;;;;10.95;5.25;;;15.60;95.10;;;;;;5148766;27;20026;-75
2021/10/27 00:07:54;;;;;;;11.90;5.07;;;15.60;95.20;;;;;;5137488;27;20440;-75
2021/10/27 00:10:20;;;;;;;16.25;6.10;;;15.50;95.20;;;;;;5138119;27;20126;-75
2021/10/27 00:12:47;;;;;;;12.95;5.97;;;15.50;95.20;;;;;;5138037;27;20027;-75
2021/10/27 00:15:15;;;;;;;27.42;8.82;;;15.50;95.20;;;;;;5138165;27;20026;-75
2021/10/27 00:17:44;;;;;;;14.38;6.85;;;15.50;95.30;;;;;;5138054;27;20468;-75
2021/10/27 00:20:11;;;;;;;16.17;7.35;;;15.50;95.30;;;;;;5147379;27;20033;-75
2021/10/27 00:22:38;;;;;;;15.70;6.82;;;15.50;95.30;;;;;;5150934;27;20046;-75
2021/10/27 00:25:06;;;;;;;11.10;5.75;;;15.50;95.30;;;;;;5136089;27;20031;-74
2021/10/27 00:27:31;;;;;;;11.43;5.88;;;15.50;95.40;;;;;;5143523;27;20031;-75
2021/10/27 00:29:57;;;;;;;19.13;7.30;;;15.50;95.40;;;;;;5155322;27;20023;-75
2021/10/27 00:32:23;;;;;;;17.05;7.30;;;15.50;95.40;;;;;;5154245;27;20382;-75
2021/10/27 00:34:48;;;;;;;19.13;7.30;;;15.60;95.40;;;;;;5136922;27;20062;-75
2021/10/27 00:37:14;;;;;;;16.88;6.10;;;15.50;95.40;;;;;;5136748;27;20059;-75
2021/10/27 00:39:39;;;;;;;11.48;5.40;;;15.50;95.40;;;;;;5135590;27;20029;-75
2021/10/27 00:42:06;;;;;;;11.52;3.85;;;15.50;95.40;;;;;;5136635;27;20038;-75
2021/10/27 00:44:32;;;;;;;15.98;6.70;;;15.60;95.40;;;;;;5137585;27;20031;-75
2021/10/27 00:47:13;;;;;;;19.60;4.72;;;15.60;95.40;;;;;;5152748;27;20034;-75
2021/10/27 00:49:40;;;;;;;8.57;4.25;;;15.60;95.40;;;;;;5140158;27;20035;-75
2021/10/27 00:52:09;;;;;;;16.92;7.03;;;15.60;95.40;;;;;;5148878;27;20477;-75
2021/10/27 00:54:36;;;;;;;12.23;5.13;;;15.60;95.30;;;;;;5144488;27;20034;-75
2021/10/27 00:57:02;;;;;;;17.85;6.45;;;15.60;95.30;;;;;;5151575;27;20022;-75
2021/10/27 00:59:29;;;;;;;11.98;6.05;;;15.60;95.40;;;;;;5136169;27;20053;-75
2021/10/27 01:01:56;;;;;;;12.48;5.47;;;15.60;95.30;;;;;;5133166;27;20034;-75
2021/10/27 01:04:23;;;;;;;12.60;5.05;;;15.60;95.30;;;;;;5154353;27;20022;-75
2021/10/27 01:06:52;;;;;;;11.25;5.22;;;15.60;95.30;;;;;;5142116;27;20027;-75
2021/10/27 01:09:18;;;;;;;13.00;6.18;;;15.70;95.30;;;;;;5151820;27;20034;-75
2021/10/27 01:11:45;;;;;;;14.05;7.25;;;15.70;95.30;;;;;;5155103;27;20030;-75
2021/10/27 01:14:11;;;;;;;5.47;3.65;;;15.70;95.40;;;;;;5151397;27;20448;-75
2021/10/27 01:16:37;;;;;;;11.15;4.32;;;15.70;95.30;;;;;;5135601;27;20114;-75
2021/10/27 01:19:04;;;;;;;16.15;5.85;;;15.70;95.30;;;;;;5148268;27;20062;-75
2021/10/27 01:21:30;;;;;;;9.30;5.13;;;15.70;95.30;;;;;;5152411;27;20568;-75
2021/10/27 01:23:59;;;;;;;8.60;4.03;;;15.70;95.30;;;;;;5153456;27;20118;-75
2021/10/27 01:26:27;;;;;;;13.35;5.93;;;15.70;95.30;;;;;;5149721;27;20370;-75
2021/10/27 01:28:53;;;;;;;14.68;5.68;;;15.70;95.30;;;;;;5147439;27;20027;-75
2021/10/27 01:31:22;;;;;;;6.07;4.32;;;15.80;95.20;;;;;;5136736;27;20059;-75
2021/10/27 01:33:48;;;;;;;16.60;5.25;;;15.70;95.20;;;;;;5146331;27;20034;-75
2021/10/27 01:36:18;;;;;;;17.02;5.90;;;15.80;95.20;;;;;;5140867;27;20499;-75
2021/10/27 01:38:45;;;;;;;9.75;3.60;;;15.70;95.30;;;;;;5153538;27;20058;-75
2021/10/27 01:41:12;;;;;;;10.80;4.57;;;15.70;95.30;;;;;;5142418;27;20030;-75
2021/10/27 01:43:52;;;;;;;7.57;4.70;;;15.70;95.30;;;;;;5153909;27;20030;-75
2021/10/27 01:46:38;;;;;;;11.45;4.57;;;15.70;95.40;;;;;;5153890;27;20433;-75
2021/10/27 01:49:06;;;;;;;11.77;5.38;;;15.80;95.40;;;;;;5137336;27;20438;-75
2021/10/27 01:51:33;;;;;;;12.43;5.13;;;15.80;95.40;;;;;;5142759;27;20113;-76
2021/10/27 01:53:59;;;;;;;13.77;5.95;;;15.80;95.40;;;;;;5153806;27;20027;-74
2021/10/27 01:56:25;;;;;;;4.13;3.72;;;15.70;95.40;;;;;;5139277;27;20034;-75
2021/10/27 01:58:54;;;;;;;15.00;5.13;;;15.80;95.40;;;;;;5142482;27;20442;-75
2021/10/27 02:01:20;;;;;;;9.88;5.00;;;15.80;95.40;;;;;;5135058;27;20035;-75
2021/10/27 02:03:46;;;;;;;8.27;4.53;;;15.80;95.40;;;;;;5134380;27;20034;-75
2021/10/27 02:06:12;;;;;;;17.42;5.82;;;15.80;95.30;;;;;;5134767;27;20026;-75
2021/10/27 02:08:38;;;;;;;13.93;5.68;;;15.80;95.30;;;;;;5142940;27;20030;-75
2021/10/27 02:11:04;;;;;;;9.77;4.20;;;15.80;95.40;;;;;;5138245;27;20049;-75
2021/10/27 02:13:30;;;;;;;13.57;5.10;;;15.80;95.40;;;;;;5150649;27;20529;-75
2021/10/27 02:15:56;;;;;;;8.77;3.03;;;15.80;95.40;;;;;;5152837;27;20109;-75
2021/10/27 02:18:22;;;;;;;8.20;4.13;;;15.80;95.40;;;;;;5135793;27;20055;-75
2021/10/27 02:20:48;;;;;;;9.88;3.45;;;15.80;95.40;;;;;;5142444;27;20085;-75
2021/10/27 02:23:18;;;;;;;7.80;3.58;;;15.80;95.30;;;;;;5141547;27;20500;-75
2021/10/27 02:25:44;;;;;;;12.95;4.85;;;15.80;95.30;;;;;;5151590;27;20118;-75
2021/10/27 02:28:10;;;;;;;7.40;3.08;;;15.90;95.60;;;;;;5149118;27;20069;-75
2021/10/27 02:30:36;;;;;;;16.05;3.97;;;15.90;95.30;;;;;;5146384;27;20059;-75
2021/10/27 02:33:02;;;;;;;14.55;3.22;;;15.90;95.20;;;;;;5137043;27;20027;-75
2021/10/27 02:35:29;;;;;;;8.88;2.45;;;15.90;95.20;;;;;;5150984;27;20034;-75
2021/10/27 02:37:55;;;;;;;6.93;3.33;;;15.90;95.20;;;;;;5140313;27;20466;-74
2021/10/27 02:40:21;;;;;;;10.00;3.92;;;16.00;95.20;;;;;;5137278;27;20080;-75
2021/10/27 02:42:46;;;;;;;8.63;2.72;;;16.00;95.20;;;;;;5142204;27;20069;-75
2021/10/27 02:45:12;;;;;;;6.63;2.83;;;16.00;95.20;;;;;;5150210;27;20035;-75
2021/10/27 02:47:39;;;;;;;11.27;3.90;;;16.00;95.20;;;;;;5146241;27;20028;-75
2021/10/27 02:50:06;;;;;;;7.03;2.45;;;16.00;95.20;;;;;;5146156;27;20027;-75
2021/10/27 02:52:32;;;;;;;12.40;3.80;;;16.00;95.20;;;;;;5134500;27;20113;-75
2021/10/27 02:54:57;;;;;;;8.57;3.60;;;16.00;95.20;;;;;;5141828;27;20115;-75
2021/10/27 02:57:23;;;;;;;8.38;2.80;;;16.00;95.20;;;;;;5152807;27;20446;-75
2021/10/27 02:59:50;;;;;;;13.85;4.78;;;15.90;95.20;;;;;;5143503;27;20038;-75
2021/10/27 03:02:15;;;;;;;12.07;3.38;;;16.00;95.20;;;;;;5145097;27;20473;-75
2021/10/27 03:04:42;;;;;;;10.65;4.03;;;16.00;95.30;;;;;;5143746;27;20027;-75
2021/10/27 03:07:07;;;;;;;7.13;3.20;;;16.00;95.20;;;;;;5146211;27;20106;-75
2021/10/27 03:09:33;;;;;;;8.52;2.97;;;16.00;95.20;;;;;;5137108;27;20553;-75
2021/10/27 03:11:59;;;;;;;11.80;3.78;;;16.00;95.20;;;;;;5145849;27;20035;-75
2021/10/27 03:14:24;;;;;;;6.57;3.58;;;16.00;95.20;;;;;;5140083;27;20018;-75
2021/10/27 03:16:50;;;;;;;3.72;2.70;;;16.00;95.20;;;;;;5135693;27;20031;-75
2021/10/27 03:19:16;;;;;;;2.95;2.00;;;16.00;95.20;;;;;;5144909;27;20038;-75
2021/10/27 03:21:42;;;;;;;2.97;1.10;;;16.00;95.20;;;;;;5146498;27;20505;-75
2021/10/27 03:24:08;;;;;;;2.20;1.45;;;16.00;95.20;;;;;;5139334;27;20054;-75
2021/10/27 03:26:34;;;;;;;9.95;3.13;;;16.00;95.20;;;;;;5148054;27;20127;-75
2021/10/27 03:28:59;;;;;;;8.32;2.70;;;16.00;95.20;;;;;;5155754;27;20034;-75
2021/10/27 03:31:25;;;;;;;3.60;1.23;;;16.00;95.20;;;;;;5144032;27;20026;-75
2021/10/27 03:33:50;;;;;;;8.20;2.60;;;16.00;95.20;;;;;;5148596;27;20430;-75
2021/10/27 03:36:16;;;;;;;11.50;3.65;;;16.10;95.20;;;;;;5150711;27;20023;-75
2021/10/27 03:38:42;;;;;;;10.00;3.03;;;16.00;95.20;;;;;;5138164;27;20027;-75
2021/10/27 03:41:09;;;;;;;6.95;2.80;;;16.00;95.20;;;;;;5138032;27;20031;-75
2021/10/27 03:43:35;;;;;;;5.97;2.47;;;16.00;95.20;;;;;;5153078;27;20027;-75
2021/10/27 03:46:01;;;;;;;12.23;3.97;;;16.00;95.20;;;;;;5148454;27;20502;-75
2021/10/27 03:48:26;;;;;;;10.00;2.78;;;16.10;95.20;;;;;;5137657;27;20034;-75
2021/10/27 03:50:52;;;;;;;8.73;2.20;;;16.00;95.20;;;;;;5155156;27;20457;-75
2021/10/27 03:53:17;;;;;;;10.80;2.95;;;16.00;95.20;;;;;;5155150;27;20046;-75
2021/10/27 03:55:43;;;;;;;9.30;3.00;;;16.00;95.30;;;;;;5155647;27;20031;-75
2021/10/27 03:58:09;;;;;;;4.43;2.58;;;16.00;95.30;;;;;;5156420;27;20079;-74
2021/10/27 04:00:37;;;;;;;12.13;2.95;;;16.10;95.30;;;;;;5143248;27;20035;-75
2021/10/27 04:03:03;;;;;;;6.57;1.92;;;16.00;95.30;;;;;;5154378;27;20053;-75
2021/10/27 04:05:30;;;;;;;10.95;2.88;;;16.00;95.30;;;;;;5152591;27;20027;-75
2021/10/27 04:07:55;;;;;;;5.82;2.30;;;16.00;95.30;;;;;;5139620;27;20035;-75
2021/10/27 04:10:21;;;;;;;7.95;3.17;;;16.00;95.30;;;;;;5140764;27;20034;-75
2021/10/27 04:12:46;;;;;;;11.02;3.55;;;16.00;95.30;;;;;;5155741;27;20027;-75
2021/10/27 04:15:12;;;;;;;4.85;2.30;;;16.00;95.30;;;;;;5154909;27;20026;-75
2021/10/27 04:17:39;;;;;;;12.18;3.10;;;16.00;95.30;;;;;;5144579;27;20022;-75
2021/10/27 04:20:06;;;;;;;7.30;2.17;;;16.00;95.40;;;;;;5146876;27;20019;-75
2021/10/27 04:22:32;;;;;;;15.90;2.50;;;16.00;95.40;;;;;;5151844;27;20094;-75
2021/10/27 04:24:58;;;;;;;11.15;2.40;;;16.00;95.40;;;;;;5142638;27;20114;-75
2021/10/27 04:27:24;;;;;;;6.07;2.10;;;16.00;95.40;;;;;;5141385;27;20106;-75
2021/10/27 04:29:50;;;;;;;8.82;1.83;;;15.90;95.40;;;;;;5137310;27;20027;-74
2021/10/27 04:32:16;;;;;;;10.38;2.00;;;16.00;95.50;;;;;;5143819;27;20045;-75
2021/10/27 04:34:41;;;;;;;7.65;2.05;;;15.90;95.50;;;;;;5140981;27;20468;-75
2021/10/27 04:37:08;;;;;;;3.13;1.73;;;16.00;95.40;;;;;;5148079;27;20107;-75
2021/10/27 04:39:35;;;;;;;12.18;2.38;;;16.00;95.40;;;;;;5136253;27;20045;-75
2021/10/27 04:42:00;;;;;;;8.93;2.08;;;16.00;95.40;;;;;;5151802;27;20033;-75
2021/10/27 04:44:26;;;;;;;4.65;1.77;;;16.00;95.40;;;;;;5149037;27;20031;-75
2021/10/27 04:46:56;;;;;;;5.20;1.75;;;16.00;95.50;;;;;;5135941;27;20035;-75
2021/10/27 04:49:22;;;;;;;13.82;2.05;;;16.00;95.50;;;;;;5135908;27;20102;-75
2021/10/27 04:51:48;;;;;;;6.53;1.50;;;16.00;95.50;;;;;;5137223;27;20456;-75
2021/10/27 04:54:14;;;;;;;5.53;1.85;;;16.00;95.50;;;;;;5148702;27;20079;-75
2021/10/27 04:56:40;;;;;;;2.95;1.15;;;16.00;95.40;;;;;;5137118;27;20031;-75
2021/10/27 04:59:06;;;;;;;8.73;1.77;;;16.00;95.40;;;;;;5148617;27;20034;-75
2021/10/27 05:01:31;;;;;;;4.20;1.33;;;16.10;95.30;;;;;;5155009;27;20035;-75
2021/10/27 05:03:57;;;;;;;2.20;0.90;;;16.10;95.60;;;;;;5149249;27;20034;-75
2021/10/27 05:06:23;;;;;;;3.70;1.40;;;16.10;95.30;;;;;;5136311;27;20371;-76
2021/10/27 05:08:50;;;;;;;8.63;1.65;;;16.10;95.20;;;;;;5143336;27;20038;-76
2021/10/27 05:11:15;;;;;;;8.40;1.55;;;16.10;95.20;;;;;;5138602;27;20031;-75
2021/10/27 05:13:41;;;;;;;11.02;2.30;;;16.10;95.20;;;;;;5137329;27;20027;-75
2021/10/27 05:16:07;;;;;;;8.55;1.63;;;16.10;95.20;;;;;;5138015;27;20027;-73
2021/10/27 05:18:33;;;;;;;10.13;1.85;;;16.10;95.10;;;;;;5138749;27;20027;-74
2021/10/27 05:20:59;;;;;;;26.20;2.10;;;16.10;95.10;;;;;;5136720;27;20091;-74
2021/10/27 05:23:25;;;;;;;5.35;2.22;;;16.10;95.10;;;;;;5135696;27;20045;-73
2021/10/27 05:25:51;;;;;;;8.93;1.30;;;16.10;95.10;;;;;;5138598;27;20095;-73
2021/10/27 05:28:16;;;;;;;6.10;1.90;;;16.10;95.10;;;;;;5138653;27;20469;-73
2021/10/27 05:30:42;;;;;;;4.55;1.17;;;16.10;95.10;;;;;;5151422;27;20018;-72
2021/10/27 05:33:08;;;;;;;5.07;2.13;;;16.10;95.10;;;;;;5139856;27;20072;-73
2021/10/27 05:35:33;;;;;;;7.85;1.80;;;16.10;95.10;;;;;;5135061;27;20062;-73
2021/10/27 05:37:59;;;;;;;5.70;1.67;;;16.20;95.10;;;;;;5132529;27;20023;-73
2021/10/27 05:40:26;;;;;;;7.30;1.70;;;16.10;95.10;;;;;;5133385;27;20114;-73
2021/10/27 05:42:51;;;;;;;3.72;1.35;;;16.20;95.10;;;;;;5114015;27;20459;-73
2021/10/27 05:45:20;;;;;;;11.85;2.47;;;16.10;95.10;;;;;;5139885;27;20166;-73
2021/10/27 05:47:49;;;;;;;4.32;1.73;;;16.10;95.00;;;;;;5139855;27;20063;-73
2021/10/27 05:50:29;;;;;;;6.22;2.30;;;16.10;95.10;;;;;;5135521;27;20065;-73
2021/10/27 05:55:39;;;;;;;7.70;2.83;;;16.10;95.10;;;;;;5137455;27;20035;-73
2021/10/27 05:58:06;;;;;;;10.88;2.03;;;16.10;95.10;;;;;;5149197;27;20103;-74
2021/10/27 06:00:32;;;;;;;9.43;1.65;;;16.10;95.20;;;;;;5144917;27;20026;-73
2021/10/27 06:03:01;;;;;;;5.05;1.13;;;16.10;95.20;;;;;;5143040;27;20030;-72
2021/10/27 06:05:27;;;;;;;8.10;2.03;;;16.10;95.20;;;;;;5133300;27;20030;-73
2021/10/27 06:07:53;;;;;;;5.68;1.70;;;16.10;95.20;;;;;;5135098;27;20031;-73
2021/10/27 06:10:20;;;;;;;5.82;1.55;;;16.10;95.20;;;;;;5133661;27;20084;-73
2021/10/27 06:12:54;;;;;;;0.65;0.63;;;16.10;95.20;;;;;;5134109;27;20497;-72
2021/10/27 06:15:21;;;;;;;3.28;1.48;;;16.10;95.20;;;;;;5138203;27;20065;-73
2021/10/27 06:17:46;;;;;;;7.47;1.35;;;16.20;95.20;;;;;;5133808;27;20040;-85
2021/10/27 06:20:13;;;;;;;8.75;1.63;;;16.20;95.20;;;;;;5154149;27;20034;-85
2021/10/27 06:22:39;;;;;;;2.92;1.25;;;16.20;95.20;;;;;;5148827;27;20053;-73
2021/10/27 06:25:08;;;;;;;9.35;1.60;;;16.20;95.20;;;;;;5144338;27;20458;-73
2021/10/27 06:27:35;;;;;;;4.32;1.45;;;16.20;95.20;;;;;;5142649;27;20072;-73
2021/10/27 06:30:08;;;;;;;2.17;0.93;;;16.20;95.10;;;;;;5141383;27;20026;-74
2021/10/27 06:35:05;;;;;;;9.32;0.95;;;16.30;95.00;;;;;;5143385;27;20465;-73
2021/10/27 06:48:20;;;;;;;11.25;2.13;;;16.20;95.00;;;;;;5145127;27;20397;-74
2021/10/27 06:50:47;;;;;;;4.32;1.73;;;16.30;95.00;;;;;;5142217;27;20023;-73
2021/10/27 06:53:13;;;;;;;1.60;1.20;;;16.20;95.10;;;;;;5141773;27;20465;-74
2021/10/27 06:55:40;;;;;;;8.88;2.22;;;16.20;95.10;;;;;;5143706;27;20025;-73
2021/10/27 06:58:07;;;;;;;5.28;1.63;;;16.20;95.10;;;;;;5142237;27;20042;-74
2021/10/27 07:00:41;;;;;;;10.52;2.22;;;16.20;95.10;;;;;;5142777;27;20035;-73
2021/10/27 07:03:30;;;;;;;4.38;1.58;;;16.20;95.10;;;;;;5151815;27;20083;-73
2021/10/27 07:16:53;;;;;;;7.60;2.17;;;16.30;95.20;;;;;;5151505;27;20054;-74
2021/10/27 07:19:19;;;;;;;5.85;1.92;;;16.30;95.20;;;;;;5140999;27;20063;-74
2021/10/27 07:21:45;;;;;;;16.27;1.92;;;16.20;95.20;;;;;;5152140;27;20404;-81
2021/10/27 07:24:11;;;;;;;12.18;2.65;;;16.30;95.20;;;;;;5149700;27;20114;-75
2021/10/27 07:26:38;;;;;;;6.72;1.88;;;16.30;95.20;;;;;;5142268;27;20015;-74
2021/10/27 07:29:04;;;;;;;4.07;1.10;;;16.30;95.20;;;;;;5149939;27;20031;-74
2021/10/27 07:31:30;;;;;;;2.38;1.90;;;16.30;95.20;;;;;;5151498;27;20021;-74
2021/10/27 07:34:02;;;;;;;9.63;2.42;;;16.30;95.20;;;;;;5142518;27;20067;-74
2021/10/27 07:41:50;;;;;;;7.60;2.50;;;16.30;95.20;;;;;;5149893;27;20035;-74
2021/10/27 07:44:17;;;;;;;7.10;2.05;;;16.30;95.20;;;;;;5150130;27;20513;-74
2021/10/27 07:46:43;;;;;;;2.40;1.70;;;16.30;95.20;;;;;;5136979;27;20106;-74
2021/10/27 07:49:09;;;;;;;13.23;1.85;;;16.30;95.20;;;;;;5149368;27;20023;-74
2021/10/27 07:51:36;;;;;;;6.10;1.75;;;16.40;95.20;;;;;;5146743;27;20037;-74
2021/10/27 07:54:02;;;;;;;9.93;2.45;;;16.30;95.20;;;;;;5155073;27;20035;-74
2021/10/27 07:56:30;;;;;;;7.47;1.88;;;16.40;95.30;;;;;;5155732;27;20080;-74
2021/10/27 07:58:55;;;;;;;7.35;2.10;;;16.30;95.50;;;;;;5141796;27;20027;-74
2021/10/27 08:01:24;;;;;;;4.75;1.98;;;16.30;95.20;;;;;;5144235;27;20488;-74
2021/10/27 08:03:50;;;;;;;4.03;1.60;;;16.40;95.20;;;;;;5144554;27;20462;-74
2021/10/27 08:06:15;;;;;;;11.75;2.83;;;16.40;95.20;;;;;;5147777;27;20146;-74
2021/10/27 08:08:41;;;;;;;1.63;1.50;;;16.40;95.10;;;;;;5154676;27;20035;-74
2021/10/27 08:11:08;;;;;;;9.05;2.75;;;16.40;95.20;;;;;;5148493;27;20050;-73
2021/10/27 08:13:34;;;;;;;7.65;1.85;;;16.40;95.20;;;;;;5149830;27;20072;-74
2021/10/27 08:15:59;;;;;;;7.80;2.85;;;16.40;95.20;;;;;;5143118;27;20043;-74
2021/10/27 08:18:25;;;;;;;5.82;2.92;;;16.40;95.20;;;;;;5148888;27;20396;-74
2021/10/27 08:20:51;;;;;;;10.95;2.65;;;16.50;95.20;;;;;;5140027;27;20051;-74
2021/10/27 08:23:19;;;;;;;5.85;2.83;;;16.50;95.20;;;;;;5141464;27;20041;-74
2021/10/27 08:25:50;;;;;;;2.63;1.80;;;16.50;95.20;;;;;;5144997;27;20031;-74
2021/10/27 08:28:19;;;;;;;5.03;2.75;;;16.50;95.20;;;;;;5155479;27;20039;-74
2021/10/27 08:33:21;;;;;;;3.95;2.22;;;16.50;95.30;;;;;;5149765;27;20435;-74
2021/10/27 08:35:49;;;;;;;3.75;2.28;;;16.50;95.30;;;;;;5146003;27;20550;-74
2021/10/27 08:38:15;;;;;;;12.40;4.65;;;16.50;95.30;;;;;;5149719;27;20027;-74
2021/10/27 08:40:44;;;;;;;6.95;2.38;;;16.50;95.30;;;;;;5146005;27;20027;-74
2021/10/27 08:43:11;;;;;;;8.07;3.78;;;16.50;95.30;;;;;;5155411;27;20042;-74
2021/10/27 08:45:38;;;;;;;7.05;2.22;;;16.50;95.30;;;;;;5140346;27;20105;-74
2021/10/27 08:48:15;;;;;;;12.02;3.45;;;16.50;95.30;;;;;;5155584;27;20026;-74
2021/10/27 08:50:48;;;;;;;19.33;4.07;;;16.50;95.30;;;;;;5141046;27;20072;-74
2021/10/27 08:53:15;;;;;;;5.72;2.63;;;16.50;95.30;;;;;;5154659;27;20030;-74
2021/10/27 08:55:46;;;;;;;12.32;3.53;;;16.50;95.40;;;;;;5137347;27;20027;-74
2021/10/27 08:58:22;;;;;;;4.60;2.83;;;16.50;95.40;;;;;;5135344;27;20109;-74
2021/10/27 09:01:00;;;;;;;8.85;4.18;;;16.50;95.50;;;;;;5149688;27;20450;-74
2021/10/27 09:03:42;;;;;;;5.65;3.00;;;16.50;95.50;;;;;;5149165;27;20047;-74
2021/10/27 09:45:05;;;;;;;8.77;3.35;;;16.50;95.40;;;;;;5147591;27;20473;-75
2021/10/27 10:04:27;;;;;;;3.53;2.65;;;16.60;95.10;;;;;;5137709;27;20042;-75
2021/10/27 10:06:56;;;;;;;10.05;3.05;;;16.70;95.10;;;;;;5133906;27;20031;-75
2021/10/27 10:09:22;;;;;;;2.38;1.88;;;16.60;95.10;;;;;;5149894;27;20393;-75
2021/10/27 10:11:49;;;;;;;3.38;2.00;;;16.60;95.10;;;;;;5137559;27;20035;-76
2021/10/27 10:14:15;;;;;;;6.45;2.47;;;16.60;95.10;;;;;;5135255;27;20026;-75
2021/10/27 10:16:47;;;;;;;5.03;2.13;;;16.60;95.10;;;;;;5152558;27;20073;-75
2021/10/27 10:19:16;;;;;;;3.72;2.10;;;16.70;95.20;;;;;;5137924;27;20031;-76
2021/10/27 10:21:45;;;;;;;9.52;3.60;;;16.60;95.10;;;;;;5144304;27;20149;-76
2021/10/27 10:24:14;;;;;;;5.57;2.35;;;16.60;95.10;;;;;;5147656;27;20023;-76
2021/10/27 10:26:41;;;;;;;11.45;3.13;;;16.70;95.10;;;;;;5149515;27;20114;-75
2021/10/27 10:29:08;;;;;;;5.22;2.40;;;16.60;95.10;;;;;;5152234;27;20033;-75
2021/10/27 10:31:36;;;;;;;12.45;3.72;;;16.70;95.10;;;;;;5151340;27;20039;-75
2021/10/27 10:34:09;;;;;;;8.98;2.60;;;16.60;95.10;;;;;;5136068;27;20023;-75
2021/10/27 10:36:40;;;;;;;3.83;2.00;;;16.70;95.20;;;;;;5137661;27;20491;-75
2021/10/27 10:39:52;;;;;;;5.68;1.67;;;16.70;95.20;;;;;;5137843;27;20023;-75
2021/10/27 10:42:50;;;;;;;2.67;1.73;;;16.70;95.10;;;;;;5135028;27;20042;-85
2021/10/27 11:37:56;;;;;;;6.68;2.17;;;17.10;94.50;;;;;;5135235;27;20034;-76
2021/10/27 11:45:42;;;;;;;1.85;1.02;;;17.10;94.40;;;;;;5140011;27;20027;-75
2021/10/27 11:48:33;;;;;;;12.93;1.75;;;17.10;94.40;;;;;;5145853;27;20042;-76
2021/10/27 11:51:07;;;;;;;3.42;1.65;;;17.10;94.30;;;;;;5144997;27;20110;-76
2021/10/27 11:53:33;;;;;;;3.95;1.55;;;17.20;94.30;;;;;;5140009;27;20037;-75
2021/10/27 11:56:10;;;;;;;1.67;1.20;;;17.20;94.20;;;;;;5136853;27;20027;-76
2021/10/27 11:58:39;;;;;;;3.63;1.45;;;17.20;94.10;;;;;;5137134;27;20031;-75
2021/10/27 12:01:06;;;;;;;1.55;1.35;;;17.20;94.00;;;;;;5135238;27;20103;-75
2021/10/27 12:03:38;;;;;;;2.35;1.20;;;17.20;93.90;;;;;;5139939;27;20039;-75
2021/10/27 12:06:09;;;;;;;5.32;1.48;;;17.20;93.90;;;;;;5140024;27;20126;-76
2021/10/27 12:19:29;;;;;;;1.38;1.13;;;17.30;93.80;;;;;;5136104;27;20118;-76
2021/10/27 12:22:07;;;;;;;2.67;1.58;;;17.40;93.70;;;;;;5137745;27;20049;-76
2021/10/27 12:24:38;;;;;;;3.55;1.48;;;17.30;93.60;;;;;;5139318;27;20377;-75
2021/10/27 12:27:21;;;;;;;1.85;1.20;;;17.40;93.60;;;;;;5138976;27;20045;-76
2021/10/27 12:29:52;;;;;;;2.03;1.17;;;17.40;93.60;;;;;;5134512;27;20064;-76
2021/10/27 12:32:18;;;;;;;1.27;1.17;;;17.30;93.50;;;;;;5137082;27;20031;-76
2021/10/27 12:34:46;;;;;;;5.25;1.55;;;17.30;93.50;;;;;;5139485;27;20027;-76
2021/10/27 12:37:41;;;;;;;1.17;0.95;;;17.30;93.50;;;;;;5137475;27;20022;-76
2021/10/27 12:43:06;;;;;;;2.17;0.77;;;17.40;93.40;;;;;;5136600;27;20039;-76
2021/10/27 12:45:44;;;;;;;3.33;1.75;;;17.40;93.40;;;;;;5137632;27;20033;-76
2021/10/27 12:48:17;;;;;;;1.77;0.57;;;17.40;93.40;;;;;;5136658;27;20414;-76
2021/10/27 12:50:55;;;;;;;4.13;1.55;;;17.40;93.30;;;;;;5134568;27;20027;-76
2021/10/27 12:53:40;;;;;;;0.40;0.40;;;17.40;93.30;;;;;;5138507;27;20114;-76
2021/10/27 12:56:12;;;;;;;8.80;1.88;;;17.40;93.30;;;;;;5144894;27;20061;-76
2021/10/27 12:58:50;;;;;;;2.90;1.03;;;17.40;93.20;;;;;;5137039;27;20035;-76
2021/10/27 13:04:42;;;;;;;1.45;1.05;;;17.50;93.50;;;;;;5117169;27;20091;-76
2021/10/27 13:07:14;;;;;;;4.13;1.50;;;17.30;93.10;;;;;;5139142;27;20019;-75
2021/10/27 13:22:52;;;;;;;6.28;1.85;;;17.40;93.00;;;;;;5139307;27;20084;-76
2021/10/27 13:31:12;;;;;;;2.10;0.93;;;17.40;93.00;;;;;;5152488;27;20019;-89
2021/10/27 13:33:33;;;;;;;6.53;1.40;;;17.40;93.10;;;;;;5139017;27;20080;-73
2021/10/27 13:35:59;;;;;;;1.10;0.73;;;17.40;92.90;;;;;;5135006;27;20038;-76
2021/10/27 13:38:32;;;;;;;2.20;1.17;;;17.40;92.90;;;;;;5147581;27;20034;-76
2021/10/27 13:40:58;;;;;;;0.70;0.70;;;17.40;92.90;;;;;;5141697;27;20381;-76
2021/10/27 13:43:30;;;;;;;5.70;1.58;;;17.40;92.90;;;;;;5152899;27;20485;-76
2021/10/27 13:49:01;;;;;;;4.75;1.80;;;17.50;92.90;;;;;;5153839;27;20396;-75
2021/10/27 14:08:04;;;;;;;3.13;1.35;;;17.40;92.80;;;;;;5151627;27;20138;-75
2021/10/27 14:10:41;;;;;;;3.30;1.33;;;17.40;92.80;;;;;;5139582;27;20026;-76
2021/10/27 14:18:31;;;;;;;2.90;1.42;;;17.40;92.70;;;;;;5144472;27;20023;-88
2021/10/27 15:25:21;;;;;;;3.08;1.33;;;17.30;92.10;;;;;;5133809;27;20080;-76
2021/10/27 15:33:29;;;;;;;11.18;1.60;;;17.30;92.30;;;;;;5144328;27;20025;-75
2021/10/27 15:51:49;;;;;;;1.95;0.93;;;17.20;91.80;;;;;;5147460;27;20030;-75
2021/10/27 15:54:15;;;;;;;4.38;1.35;;;17.20;91.80;;;;;;5148240;27;20545;-75
2021/10/27 15:56:41;;;;;;;1.13;0.93;;;17.20;91.90;;;;;;5146517;27;20110;-77
2021/10/27 15:59:07;;;;;;;3.28;1.42;;;17.10;91.90;;;;;;5146312;27;20114;-77
2021/10/27 16:01:32;;;;;;;1.23;0.98;;;17.10;91.90;;;;;;5146305;27;20023;-76
2021/10/27 16:03:58;;;;;;;1.00;0.90;;;17.10;91.90;;;;;;5151732;27;20061;-77
2021/10/27 16:06:26;;;;;;;2.47;1.00;;;17.10;91.90;;;;;;5138158;27;20021;-76
2021/10/27 16:08:55;;;;;;;2.25;1.27;;;17.10;91.90;;;;;;5142469;27;20027;-77
2021/10/27 16:11:21;;;;;;;1.00;0.75;;;17.10;91.90;;;;;;5140477;27;20033;-77
2021/10/27 16:13:50;;;;;;;1.70;1.20;;;17.10;91.90;;;;;;5136379;27;20034;-76
2021/10/27 16:16:17;;;;;;;2.80;1.40;;;17.10;91.80;;;;;;5140746;27;20496;-77
2021/10/27 16:18:44;;;;;;;5.32;1.20;;;17.10;91.80;;;;;;5146542;27;20023;-76
2021/10/27 16:21:10;;;;;;;7.68;1.40;;;17.10;91.70;;;;;;5148746;27;20068;-77
2021/10/27 16:23:36;;;;;;;4.07;1.00;;;17.10;91.70;;;;;;5150391;27;20039;-77
2021/10/27 16:26:03;;;;;;;3.80;1.30;;;17.10;91.70;;;;;;5156720;27;20027;-88
2021/10/27 16:28:28;;;;;;;0.68;0.68;;;17.10;91.70;;;;;;5145637;27;20030;-81
2021/10/27 16:30:56;;;;;;;9.40;1.13;;;17.10;91.70;;;;;;5143911;27;20019;-82
2021/10/27 16:33:23;;;;;;;4.15;1.60;;;17.00;91.70;;;;;;5137401;27;20023;-82
2021/10/27 16:35:50;;;;;;;4.63;1.38;;;17.10;91.70;;;;;;5138783;27;20098;-86
2021/10/27 16:38:16;;;;;;;2.65;1.25;;;17.00;91.60;;;;;;5145035;27;20109;-76
2021/10/27 16:40:42;;;;;;;3.95;1.33;;;17.10;91.70;;;;;;5140200;27;20031;-82
2021/10/27 16:43:08;;;;;;;6.30;2.17;;;17.10;91.90;;;;;;5142485;27;20091;-82
2021/10/27 16:45:34;;;;;;;4.05;1.80;;;17.00;91.40;;;;;;5148460;27;20031;-75
2021/10/27 16:48:02;;;;;;;4.88;2.22;;;17.00;91.40;;;;;;5136601;27;20035;-76
2021/10/27 16:50:29;;;;;;;2.08;1.23;;;17.00;91.40;;;;;;5147367;27;20462;-75
2021/10/27 16:52:59;;;;;;;2.28;1.45;;;17.00;91.40;;;;;;5141441;27;20038;-76
2021/10/27 16:55:25;;;;;;;1.73;1.23;;;17.00;91.40;;;;;;5152676;27;20090;-76
2021/10/27 16:57:57;;;;;;;1.48;1.35;;;17.00;91.40;;;;;;5139395;27;20488;-76
2021/10/27 17:00:26;;;;;;;4.80;1.98;;;17.00;91.30;;;;;;5140536;27;20035;-76
2021/10/27 17:02:51;;;;;;;2.45;1.50;;;17.00;91.30;;;;;;5152132;27;20167;-76
2021/10/27 17:05:17;;;;;;;4.35;1.45;;;17.00;91.30;;;;;;5148451;27;20509;-76
2021/10/27 17:07:43;;;;;;;7.43;2.33;;;17.00;91.30;;;;;;5139450;27;20050;-76
2021/10/27 17:10:12;;;;;;;2.58;1.52;;;17.00;91.20;;;;;;5140969;27;20501;-76
2021/10/27 17:12:38;;;;;;;6.63;1.63;;;16.90;91.30;;;;;;5140140;27;20034;-73
2021/10/27 17:15:06;;;;;;;2.08;1.83;;;17.00;91.30;;;;;;5139185;27;20027;-76
2021/10/27 17:17:32;;;;;;;3.63;1.65;;;16.90;91.20;;;;;;5145774;27;20397;-75
2021/10/27 17:19:57;;;;;;;4.40;1.67;;;16.90;91.20;;;;;;5142219;27;20037;-76
2021/10/27 17:22:26;;;;;;;10.90;1.80;;;16.90;91.20;;;;;;5151767;27;20055;-86
2021/10/27 17:24:52;;;;;;;1.45;1.08;;;17.00;91.10;;;;;;5140269;27;20031;-85
2021/10/27 17:27:18;;;;;;;14.85;2.15;;;16.90;91.00;;;;;;5152335;27;20031;-92
2021/10/27 17:29:43;;;;;;;6.20;2.25;;;16.90;91.00;;;;;;5152224;27;20030;-89
2021/10/27 17:32:09;;;;;;;3.22;1.40;;;16.90;90.90;;;;;;5147028;27;20019;-81
2021/10/27 17:34:35;;;;;;;2.75;1.55;;;16.90;90.80;;;;;;5142069;27;20385;-77
2021/10/27 17:37:01;;;;;;;2.05;1.42;;;16.80;90.80;;;;;;5145411;27;20122;-74
2021/10/27 17:39:27;;;;;;;3.28;1.55;;;16.80;90.80;;;;;;5139712;27;20030;-77
2021/10/27 17:41:56;;;;;;;3.28;1.73;;;16.80;90.80;;;;;;5150324;27;20027;-81